createdAt,value
2019-05-03T00:02:13.243Z,80.48
2019-05-03T00:04:46.224Z,80.52
2019-05-03T00:07:17.957Z,80.55
2019-05-03T00:09:52.022Z,80.49
2019-05-03T00:12:23.843Z,80.71
2019-05-03T00:15:06.368Z,81.25
2019-05-03T00:17:38.783Z,81.51
2019-05-03T00:20:11.653Z,81.49
2019-05-03T00:22:43.441Z,81.71
2019-05-03T00:25:14.946Z,81.73
2019-05-03T00:27:47.100Z,81.78
2019-05-03T00:30:18.856Z,82.06
2019-05-03T00:32:52.151Z,82.77
2019-05-03T00:35:25.307Z,82.77
2019-05-03T00:37:58.637Z,82.82
2019-05-03T00:40:32.243Z,82.90
2019-05-03T00:43:03.396Z,83.11
2019-05-03T00:45:35.172Z,83.28
2019-05-03T00:48:07.512Z,83.29
2019-05-03T00:50:39.259Z,83.29
2019-05-03T00:53:11.743Z,83.40
2019-05-03T00:55:43.398Z,83.60
2019-05-03T00:58:15.189Z,83.80
2019-05-03T01:00:46.606Z,83.77
2019-05-03T01:03:18.791Z,83.48
2019-05-03T01:05:50.425Z,83.48
2019-05-03T01:08:22.448Z,83.70
2019-05-03T01:10:54.270Z,83.94
2019-05-03T01:13:26.021Z,83.46
2019-05-03T01:15:59.438Z,83.46
2019-05-03T01:18:32.381Z,83.66
2019-05-03T01:21:04.349Z,84.00
2019-05-03T01:23:35.935Z,84.42
2019-05-03T01:26:07.766Z,84.78
2019-05-03T01:28:39.219Z,85.30
2019-05-03T01:31:12.003Z,85.45
2019-05-03T01:33:43.532Z,85.19
2019-05-03T01:36:15.432Z,85.20
2019-05-03T01:38:46.919Z,85.32
2019-05-03T01:41:18.748Z,85.64
2019-05-03T01:43:52.418Z,85.82
2019-05-03T01:46:24.254Z,85.84
2019-05-03T01:49:01.555Z,85.85
2019-05-03T01:51:44.075Z,85.75
2019-05-03T01:54:15.059Z,86.10
2019-05-03T01:59:23.589Z,87.28
2019-05-03T02:02:12.934Z,87.89
2019-05-03T02:04:46.197Z,88.25
2019-05-03T02:07:17.754Z,88.46
2019-05-03T02:09:49.752Z,88.76
2019-05-03T02:12:22.204Z,88.89
2019-05-03T02:14:53.395Z,89.23
2019-05-03T02:17:25.352Z,89.29
2019-05-03T02:19:57.177Z,89.85
2019-05-03T02:22:28.714Z,90.25
2019-05-03T02:25:01.745Z,90.35
2019-05-03T02:27:33.635Z,90.18
2019-05-03T02:30:06.308Z,90.19
2019-05-03T02:32:37.843Z,89.97
2019-05-03T02:35:09.650Z,89.89
2019-05-03T02:37:43.842Z,90.02
2019-05-03T02:42:26.231Z,90.04
2019-05-03T02:44:59.983Z,89.88
2019-05-03T02:47:40.472Z,89.40
2019-05-03T02:50:16.480Z,89.33
2019-05-03T02:52:47.185Z,89.09
2019-05-03T02:55:18.926Z,88.19
2019-05-03T02:57:50.650Z,86.94
2019-05-03T03:00:40.343Z,87.00
2019-05-03T03:03:12.371Z,86.45
2019-05-03T03:05:46.365Z,84.97
2019-05-03T03:08:20.382Z,84.24
2019-05-03T03:10:55.571Z,81.95
2019-05-03T03:13:28.908Z,79.83
2019-05-03T03:16:03.446Z,77.35
2019-05-03T03:18:37.464Z,75.51
2019-05-03T03:21:15.717Z,74.14
2019-05-03T03:24:09.907Z,72.77
2019-05-03T03:26:43.412Z,71.70
2019-05-03T03:29:16.531Z,70.55
2019-05-03T03:32:08.478Z,69.14
2019-05-03T03:34:48.100Z,68.11
2019-05-03T03:37:15.681Z,67.00
2019-05-03T03:39:46.893Z,65.06
2019-05-03T03:42:19.918Z,62.37
2019-05-03T03:44:56.059Z,62.17
2019-05-03T03:47:30.043Z,62.05
2019-05-03T03:50:05.865Z,61.33
2019-05-03T03:52:40.480Z,59.55
2019-05-03T03:55:15.642Z,58.08
2019-05-03T03:57:46.947Z,56.57
2019-05-03T04:00:19.157Z,54.82
2019-05-03T04:02:50.313Z,54.92
2019-05-03T04:05:21.957Z,53.18
2019-05-03T04:07:56.142Z,51.05
2019-05-03T04:10:28.286Z,49.17
2019-05-03T04:13:00.522Z,48.99
2019-05-03T04:15:39.461Z,48.68
2019-05-03T04:18:19.377Z,48.02
2019-05-03T04:20:50.977Z,47.72
2019-05-03T04:23:23.011Z,47.15
2019-05-03T04:25:56.545Z,46.57
2019-05-03T04:28:29.291Z,45.97
2019-05-03T04:31:00.841Z,44.70
2019-05-03T04:33:35.711Z,43.91
2019-05-03T04:36:06.271Z,42.70
2019-05-03T04:38:38.613Z,42.38
2019-05-03T04:41:10.671Z,42.11
2019-05-03T04:43:41.964Z,40.88
2019-05-03T04:46:16.408Z,40.37
2019-05-03T04:48:48.675Z,40.88
2019-05-03T04:51:20.568Z,40.99
2019-05-03T04:53:55.696Z,40.24
2019-05-03T04:56:27.324Z,38.81
2019-05-03T04:58:59.330Z,39.95
2019-05-03T05:01:30.873Z,39.22
2019-05-03T05:04:05.191Z,37.66
2019-05-03T05:06:36.390Z,37.17
2019-05-03T05:09:08.873Z,35.41
2019-05-03T05:11:40.957Z,34.01
2019-05-03T05:14:15.139Z,33.78
2019-05-03T05:16:46.776Z,33.47
2019-05-03T05:19:29.279Z,34.02
2019-05-03T05:22:08.242Z,34.45
2019-05-03T05:24:40.874Z,32.76
2019-05-03T05:27:14.636Z,31.57
2019-05-03T05:29:46.445Z,31.82
2019-05-03T05:32:18.048Z,32.69
2019-05-03T05:34:49.847Z,32.56
2019-05-03T05:37:21.224Z,32.22
2019-05-03T05:39:55.092Z,32.54
2019-05-03T05:42:27.000Z,33.67
2019-05-03T05:44:58.716Z,33.62
2019-05-03T05:47:37.450Z,32.38
2019-05-03T05:50:11.172Z,32.47
2019-05-03T05:52:44.728Z,30.16
2019-05-03T05:55:26.748Z,29.05
2019-05-03T05:58:15.739Z,29.44
2019-05-03T06:00:52.353Z,33.08
2019-05-03T06:03:25.242Z,36.28
2019-05-03T06:05:58.651Z,37.46
2019-05-03T06:08:35.439Z,36.63
2019-05-03T06:11:14.901Z,33.89
2019-05-03T06:13:57.355Z,32.19
2019-05-03T06:16:36.829Z,32.15
2019-05-03T06:19:14.614Z,32.77
2019-05-03T06:22:05.987Z,31.89
2019-05-03T06:24:39.486Z,30.70
2019-05-03T06:27:12.736Z,30.40
2019-05-03T06:29:45.428Z,29.49
2019-05-03T06:32:18.666Z,29.65
2019-05-03T06:34:50.244Z,29.46
2019-05-03T06:37:29.665Z,30.59
2019-05-03T06:40:01.916Z,31.54
2019-05-03T06:42:35.484Z,32.93
2019-05-03T06:45:11.515Z,33.39
2019-05-03T06:47:46.054Z,31.22
2019-05-03T06:50:19.393Z,30.31
2019-05-03T06:52:48.948Z,30.66
2019-05-03T06:55:20.749Z,30.64
2019-05-03T06:57:54.526Z,30.64
2019-05-03T07:00:32.188Z,30.81
2019-05-03T07:03:17.290Z,30.74
2019-05-03T07:05:50.626Z,30.94
2019-05-03T07:08:41.466Z,31.82
2019-05-03T07:11:15.351Z,31.94
2019-05-03T07:13:46.484Z,31.73
2019-05-03T07:16:18.275Z,29.28
2019-05-03T07:18:49.914Z,28.95
2019-05-03T07:21:21.498Z,28.28
2019-05-03T07:23:55.183Z,27.82
2019-05-03T07:26:29.120Z,28.01
2019-05-03T07:29:00.704Z,27.97
2019-05-03T07:31:32.474Z,27.29
2019-05-03T07:34:05.198Z,28.14
2019-05-03T07:36:36.998Z,27.44
2019-05-03T07:39:09.753Z,27.74
2019-05-03T07:41:41.145Z,26.94
2019-05-03T07:44:15.060Z,26.53
2019-05-03T07:46:46.195Z,26.59
2019-05-03T07:49:18.161Z,26.07
2019-05-03T07:51:50.214Z,26.71
2019-05-03T07:54:21.674Z,25.96
2019-05-03T07:56:54.998Z,26.10
2019-05-03T07:59:26.458Z,26.27
2019-05-03T08:01:58.991Z,26.14
2019-05-03T08:04:30.965Z,27.45
2019-05-03T08:07:04.480Z,27.68
2019-05-03T08:09:36.119Z,28.57
2019-05-03T08:12:07.793Z,30.87
2019-05-03T08:14:39.357Z,33.29
2019-05-03T08:17:11.949Z,35.61
2019-05-03T08:19:44.766Z,37.60
2019-05-03T08:22:16.525Z,38.58
2019-05-03T08:24:48.202Z,40.16
2019-05-03T08:27:19.985Z,41.38
2019-05-03T08:29:51.819Z,39.90
2019-05-03T08:32:41.136Z,40.77
2019-05-03T08:35:17.319Z,41.25
2019-05-03T08:37:50.671Z,41.12
2019-05-03T08:40:24.574Z,41.57
2019-05-03T08:42:56.202Z,40.57
2019-05-03T08:45:27.924Z,40.92
2019-05-03T08:47:59.826Z,40.35
2019-05-03T08:50:31.574Z,40.48
2019-05-03T08:53:05.230Z,40.49
2019-05-03T08:55:36.686Z,40.41
2019-05-03T08:58:08.400Z,40.72
2019-05-03T09:00:41.676Z,41.01
2019-05-03T09:03:14.588Z,40.83
2019-05-03T09:05:46.594Z,40.26
2019-05-03T09:08:18.925Z,39.56
2019-05-03T09:11:01.434Z,39.25
2019-05-03T09:13:48.757Z,39.56
2019-05-03T09:16:20.608Z,39.97
2019-05-03T09:18:52.077Z,40.40
2019-05-03T09:21:25.513Z,40.39
2019-05-03T09:23:58.069Z,40.34
2019-05-03T09:26:29.834Z,40.36
2019-05-03T09:29:01.482Z,40.94
2019-05-03T09:31:35.138Z,41.18
2019-05-03T09:34:08.332Z,39.72
2019-05-03T09:36:40.536Z,40.42
2019-05-03T09:39:12.160Z,40.67
2019-05-03T09:41:45.033Z,40.39
2019-05-03T09:44:16.797Z,40.16
2019-05-03T09:46:48.239Z,40.21
2019-05-03T09:49:20.239Z,39.64
2019-05-03T09:51:51.865Z,40.96
2019-05-03T09:54:25.579Z,40.26
2019-05-03T09:56:58.801Z,39.91
2019-05-03T09:59:31.233Z,40.02
2019-05-03T10:02:04.830Z,40.27
2019-05-03T10:04:36.907Z,38.94
2019-05-03T10:07:09.678Z,38.20
2019-05-03T10:09:41.654Z,37.47
2019-05-03T10:12:16.209Z,38.10
2019-05-03T10:14:48.108Z,39.24
2019-05-03T10:17:36.382Z,38.60
2019-05-03T10:20:15.353Z,38.95
2019-05-03T10:22:46.952Z,38.24
2019-05-03T10:25:18.949Z,39.80
2019-05-03T10:27:50.474Z,38.85
2019-05-03T10:30:23.966Z,38.60
2019-05-03T10:33:15.525Z,39.11
2019-05-03T10:35:47.890Z,39.31
2019-05-03T10:38:19.687Z,39.17
2019-05-03T10:40:54.882Z,39.35
2019-05-03T10:43:25.890Z,38.85
2019-05-03T10:45:57.855Z,38.88
2019-05-03T10:48:28.951Z,38.96
2019-05-03T10:51:00.959Z,39.07
2019-05-03T10:53:34.585Z,39.34
2019-05-03T10:56:23.045Z,40.01
2019-05-03T10:58:55.016Z,38.88
2019-05-03T11:01:38.061Z,39.07
2019-05-03T11:04:09.641Z,39.12
2019-05-03T11:06:41.400Z,40.14
2019-05-03T11:09:15.339Z,39.87
2019-05-03T11:11:46.519Z,39.93
2019-05-03T11:14:18.215Z,39.80
2019-05-03T11:16:50.074Z,39.07
2019-05-03T11:19:21.521Z,39.78
2019-05-03T11:21:54.731Z,39.81
2019-05-03T11:24:27.530Z,39.29
2019-05-03T11:27:01.005Z,38.92
2019-05-03T11:29:32.444Z,39.89
2019-05-03T11:32:10.681Z,40.51
2019-05-03T11:35:00.138Z,40.51
2019-05-03T11:37:34.618Z,40.76
2019-05-03T11:40:07.952Z,39.37
2019-05-03T11:42:39.078Z,40.11
2019-05-03T11:45:12.102Z,39.95
2019-05-03T11:47:45.782Z,38.16
2019-05-03T11:50:18.493Z,38.11
2019-05-03T11:52:50.005Z,38.68
2019-05-03T11:55:21.870Z,38.53
2019-05-03T11:57:53.359Z,38.78
2019-05-03T12:00:26.835Z,38.61
2019-05-03T12:03:04.849Z,38.99
2019-05-03T12:05:36.001Z,39.31
2019-05-03T12:08:07.620Z,40.00
2019-05-03T12:10:52.486Z,38.79
2019-05-03T12:13:17.501Z,39.00
2019-05-03T12:15:49.443Z,39.26
2019-05-03T12:18:22.228Z,39.17
2019-05-03T12:20:56.865Z,38.50
2019-05-03T12:23:30.999Z,38.74
2019-05-03T12:26:01.630Z,38.28
2019-05-03T12:28:35.285Z,38.64
2019-05-03T12:31:07.083Z,38.34
2019-05-03T12:33:39.047Z,38.89
2019-05-03T12:36:11.361Z,38.76
2019-05-03T12:38:43.357Z,39.60
2019-05-03T12:41:15.177Z,38.24
2019-05-03T12:43:46.691Z,38.90
2019-05-03T12:46:18.535Z,38.81
2019-05-03T12:48:51.307Z,38.40
2019-05-03T12:51:25.019Z,38.29
2019-05-03T12:53:56.286Z,39.00
2019-05-03T12:56:32.527Z,38.25
2019-05-03T12:59:09.721Z,38.22
2019-05-03T13:01:59.600Z,38.15
2019-05-03T13:04:32.869Z,38.35
2019-05-03T13:07:06.342Z,37.61
2019-05-03T13:09:38.161Z,37.79
2019-05-03T13:12:11.545Z,37.52
2019-05-03T13:14:45.256Z,38.30
2019-05-03T13:17:17.791Z,37.58
2019-05-03T13:19:49.531Z,37.38
2019-05-03T13:22:21.383Z,37.55
2019-05-03T13:24:54.526Z,37.75
2019-05-03T13:27:26.287Z,37.44
2019-05-03T13:29:58.044Z,38.19
2019-05-03T13:32:29.893Z,37.73
2019-05-03T13:35:01.565Z,38.11
2019-05-03T13:37:35.748Z,38.82
2019-05-03T13:40:08.000Z,37.97
2019-05-03T13:42:53.051Z,37.75
2019-05-03T13:45:12.934Z,37.79
2019-05-03T13:47:44.832Z,37.52
2019-05-03T13:50:16.504Z,37.52
2019-05-03T13:52:48.185Z,37.49
2019-05-03T13:55:19.811Z,37.62
2019-05-03T13:57:51.708Z,38.29
2019-05-03T14:00:24.697Z,38.11
2019-05-03T14:02:56.527Z,37.93
2019-05-03T14:05:28.072Z,38.33
2019-05-03T14:08:00.087Z,39.13
2019-05-03T14:10:31.183Z,39.39
2019-05-03T14:13:02.940Z,39.48
2019-05-03T14:15:34.814Z,39.53
2019-05-03T14:18:07.600Z,40.07
2019-05-03T14:20:54.937Z,40.42
2019-05-03T14:23:26.270Z,40.18
2019-05-03T14:25:57.963Z,40.47
2019-05-03T14:28:29.609Z,40.93
2019-05-03T14:31:01.116Z,41.19
2019-05-03T14:33:32.810Z,41.19
2019-05-03T14:36:05.294Z,41.70
2019-05-03T14:38:37.212Z,41.45
2019-05-03T14:41:09.011Z,41.45
2019-05-03T14:43:40.932Z,41.21
2019-05-03T14:46:14.964Z,40.96
2019-05-03T14:48:46.210Z,39.50
2019-05-03T14:51:17.668Z,39.67
2019-05-03T14:53:49.996Z,40.36
2019-05-03T14:56:31.840Z,39.91
2019-05-03T14:59:21.298Z,39.67
2019-05-03T15:01:57.745Z,39.36
2019-05-03T15:04:29.804Z,39.54
2019-05-03T15:07:01.406Z,39.69
2019-05-03T15:09:35.146Z,40.29
2019-05-03T15:12:06.424Z,40.64
2019-05-03T15:14:38.172Z,40.86
2019-05-03T15:17:10.055Z,40.46
2019-05-03T15:19:41.883Z,40.77
2019-05-03T15:22:14.637Z,40.38
2019-05-03T15:24:47.379Z,40.21
2019-05-03T15:27:18.943Z,40.08
2019-05-03T15:29:50.909Z,39.99
2019-05-03T15:32:24.868Z,39.71
2019-05-03T15:34:56.528Z,39.80
2019-05-03T15:37:28.040Z,39.95
2019-05-03T15:39:59.856Z,40.40
2019-05-03T15:42:31.636Z,41.15
2019-05-03T15:45:05.269Z,41.69
2019-05-03T15:47:38.698Z,41.80
2019-05-03T15:50:10.231Z,41.81
2019-05-03T15:52:42.060Z,41.82
2019-05-03T15:55:15.232Z,41.83
2019-05-03T15:57:46.933Z,42.57
2019-05-03T16:00:18.552Z,42.79
2019-05-03T16:02:50.579Z,43.17
2019-05-03T16:05:22.178Z,43.65
2019-05-03T16:07:55.307Z,43.95
2019-05-03T16:10:27.912Z,44.06
2019-05-03T16:12:59.876Z,44.25
2019-05-03T16:15:31.617Z,44.66
2019-05-03T16:18:05.153Z,44.87
2019-05-03T16:20:39.425Z,45.13
2019-05-03T16:23:10.094Z,45.47
2019-05-03T16:25:41.722Z,45.54
2019-05-03T16:28:20.326Z,45.82
2019-05-03T16:30:52.820Z,46.04
2019-05-03T16:33:27.866Z,46.32
2019-05-03T16:35:58.184Z,46.53
2019-05-03T16:38:30.142Z,46.75
2019-05-03T16:41:01.702Z,46.73
2019-05-03T16:43:34.854Z,46.87
2019-05-03T16:46:06.543Z,47.02
2019-05-03T16:48:38.708Z,47.23
2019-05-03T16:51:10.875Z,47.58
2019-05-03T16:53:44.523Z,47.73
2019-05-03T16:56:17.093Z,48.13
2019-05-03T16:58:48.867Z,48.34
2019-05-03T17:01:20.473Z,48.58
2019-05-03T17:03:54.929Z,48.72
2019-05-03T17:06:34.831Z,48.77
2019-05-03T17:09:17.995Z,48.83
2019-05-03T17:12:07.388Z,49.05
2019-05-03T17:14:39.188Z,49.20
2019-05-03T17:17:11.156Z,49.39
2019-05-03T17:19:44.698Z,50.02
2019-05-03T17:22:17.421Z,51.45
2019-05-03T17:24:51.646Z,52.51
2019-05-03T17:27:24.858Z,53.47
2019-05-03T17:29:55.924Z,54.51
2019-05-03T17:32:27.428Z,55.46
2019-05-03T17:34:59.595Z,56.62
2019-05-03T17:37:31.544Z,57.26
2019-05-03T17:40:05.441Z,57.67
2019-05-03T17:42:55.488Z,58.62
2019-05-03T17:45:28.963Z,58.93
2019-05-03T17:48:01.079Z,59.61
2019-05-03T17:50:34.719Z,59.81
2019-05-03T17:53:07.968Z,60.11
2019-05-03T17:55:56.366Z,60.50
2019-05-03T17:58:46.065Z,60.92
2019-05-03T18:01:25.372Z,61.37
2019-05-03T18:04:09.478Z,61.88
2019-05-03T18:06:59.314Z,62.06
2019-05-03T18:09:34.445Z,62.55
2019-05-03T18:12:06.794Z,62.91
2019-05-03T18:14:37.890Z,63.12
2019-05-03T18:17:09.516Z,63.40
2019-05-03T18:19:40.963Z,63.28
2019-05-03T18:22:12.744Z,63.58
2019-05-03T18:24:45.524Z,63.86
2019-05-03T18:27:18.208Z,64.38
2019-05-03T18:29:49.934Z,64.75
2019-05-03T18:32:21.941Z,65.30
2019-05-03T18:34:54.595Z,65.58
2019-05-03T18:37:26.377Z,66.00
2019-05-03T18:39:58.133Z,66.56
2019-05-03T18:42:40.820Z,67.07
2019-05-03T18:45:19.367Z,67.54
2019-05-03T18:47:50.878Z,68.27
2019-05-03T18:50:22.514Z,68.56
2019-05-03T18:52:55.392Z,69.18
2019-05-03T18:55:26.973Z,69.00
2019-05-03T18:57:58.950Z,69.34
2019-05-03T19:00:31.563Z,69.18
2019-05-03T19:03:03.368Z,69.35
2019-05-03T19:05:36.432Z,69.14
2019-05-03T19:08:24.891Z,69.69
2019-05-03T19:10:58.013Z,69.59
2019-05-03T19:13:46.533Z,70.14
2019-05-03T19:16:29.159Z,70.44
2019-05-03T19:19:01.132Z,70.02
2019-05-03T19:21:32.655Z,69.99
2019-05-03T19:24:04.855Z,70.32
2019-05-03T19:26:36.539Z,70.28
2019-05-03T19:29:08.195Z,70.47
2019-05-03T19:31:39.857Z,70.82
2019-05-03T19:34:15.283Z,70.95
2019-05-03T19:36:46.343Z,71.27
2019-05-03T19:39:18.713Z,71.36
2019-05-03T19:41:50.323Z,70.95
2019-05-03T19:44:22.511Z,71.36
2019-05-03T19:46:54.270Z,71.34
2019-05-03T19:49:26.647Z,71.42
2019-05-03T19:51:58.420Z,70.86
2019-05-03T19:54:30.384Z,70.80
2019-05-03T19:57:01.869Z,71.03
2019-05-03T19:59:50.241Z,71.41
2019-05-03T20:02:39.738Z,70.95
2019-05-03T20:05:14.963Z,70.85
2019-05-03T20:08:07.025Z,71.08
2019-05-03T20:10:40.555Z,71.39
2019-05-03T20:13:12.145Z,71.15
2019-05-03T20:15:45.056Z,71.08
2019-05-03T20:18:18.106Z,71.26
2019-05-03T20:20:50.079Z,71.57
2019-05-03T20:23:22.015Z,71.72
2019-05-03T20:25:54.628Z,72.44
2019-05-03T20:28:26.382Z,72.44
2019-05-03T20:30:57.984Z,72.55
2019-05-03T20:33:29.389Z,72.28
2019-05-03T20:36:01.352Z,72.51
2019-05-03T20:38:33.001Z,72.42
2019-05-03T20:41:05.253Z,72.77
2019-05-03T20:43:41.559Z,72.53
2019-05-03T20:46:28.421Z,72.66
2019-05-03T20:49:02.006Z,72.72
2019-05-03T20:51:34.588Z,72.62
2019-05-03T20:54:05.605Z,72.53
2019-05-03T20:56:38.261Z,72.78
2019-05-03T20:59:09.763Z,72.60
2019-05-03T21:01:41.788Z,72.75
2019-05-03T21:04:15.300Z,72.62
2019-05-03T21:06:47.340Z,72.59
2019-05-03T21:09:18.872Z,72.55
2019-05-03T21:11:51.081Z,72.43
2019-05-03T21:14:24.483Z,72.33
2019-05-03T21:16:58.400Z,71.98
2019-05-03T21:19:50.070Z,72.06
2019-05-03T21:22:24.914Z,71.58
2019-05-03T21:24:58.189Z,71.48
2019-05-03T21:27:30.213Z,71.45
2019-05-03T21:30:01.781Z,70.80
2019-05-03T21:32:35.156Z,70.91
2019-05-03T21:35:07.884Z,70.84
2019-05-03T21:37:39.574Z,70.62
2019-05-03T21:40:11.207Z,70.25
2019-05-03T21:42:45.159Z,70.07
2019-05-03T21:45:18.112Z,69.71
2019-05-03T21:48:06.537Z,69.79
2019-05-03T21:50:38.605Z,69.78
2019-05-03T21:53:10.479Z,69.61
2019-05-03T21:55:42.034Z,69.35
2019-05-03T21:58:16.043Z,69.33
2019-05-03T22:00:49.560Z,69.67
2019-05-03T22:03:21.296Z,69.58
2019-05-03T22:05:57.355Z,70.46
2019-05-03T22:08:26.482Z,69.86
2019-05-03T22:10:59.173Z,69.40
2019-05-03T22:13:31.083Z,69.35
2019-05-03T22:16:15.397Z,69.08
2019-05-03T22:18:46.948Z,68.57
2019-05-03T22:21:20.197Z,68.26
2019-05-03T22:23:56.462Z,68.20
2019-05-03T22:26:32.457Z,68.21
2019-05-03T22:29:04.431Z,68.18
2019-05-03T22:31:36.428Z,68.15
2019-05-03T22:34:08.391Z,68.25
2019-05-03T22:36:40.153Z,68.37
2019-05-03T22:39:11.854Z,68.28
2019-05-03T22:41:45.086Z,68.49
2019-05-03T22:44:17.237Z,68.32
2019-05-03T22:46:49.050Z,68.34
2019-05-03T22:49:21.226Z,68.79
2019-05-03T22:51:54.400Z,69.32
2019-05-03T22:54:26.500Z,70.06
2019-05-03T22:56:58.250Z,71.03
2019-05-03T22:59:30.136Z,72.00
2019-05-03T23:02:02.231Z,72.54
2019-05-03T23:04:35.610Z,73.08
2019-05-03T23:07:07.386Z,73.54
2019-05-03T23:09:39.080Z,73.12
2019-05-03T23:12:10.699Z,72.70
2019-05-03T23:14:44.549Z,72.67
2019-05-03T23:17:16.048Z,72.01
2019-05-03T23:19:49.391Z,72.29
2019-05-03T23:22:24.573Z,72.31
2019-05-03T23:24:56.658Z,72.04
2019-05-03T23:27:28.297Z,71.72
2019-05-03T23:30:00.194Z,71.61
2019-05-03T23:32:31.648Z,71.70
2019-05-03T23:35:04.953Z,71.38
2019-05-03T23:37:37.113Z,70.94
2019-05-03T23:40:09.142Z,70.85
2019-05-03T23:42:40.801Z,70.93
2019-05-03T23:45:14.905Z,71.13
2019-05-03T23:47:49.650Z,71.55
2019-05-03T23:50:24.715Z,71.89
2019-05-03T23:52:56.878Z,72.12
2019-05-03T23:55:36.677Z,72.13
2019-05-03T23:58:08.660Z,71.74
